Time;durP1;ratioP1;P1;durP2;ratioP2;P2;SDS_P1;SDS_P2;PMS_P1;PMS_P2;Temp;Humidity;BMP_temperature;BMP_pressure;BME280_temperature;BME280_humidity;BME280_pressure;Samples;Min_cycle;Max_cycle;Signal;HPM_P1;HPM_P2
2021/06/12 00:01:11;;;;;;;3.17;1.58;;;;;;;;;;5010720;28;20048;-60
2021/06/12 00:03:37;;;;;;;1.48;1.30;;;;;;;;;;5009094;28;20472;-60
2021/06/12 00:06:04;;;;;;;1.73;1.40;;;;;;;;;;5004861;28;20034;-60
2021/06/12 00:08:30;;;;;;;1.60;1.50;;;;;;;;;;5010096;28;20053;-60
2021/06/12 00:10:56;;;;;;;1.60;1.50;;;;;;;;;;5013952;28;20022;-60
2021/06/12 00:13:23;;;;;;;1.67;1.45;;;;;;;;;;5010257;28;20119;-60
2021/06/12 00:15:49;;;;;;;3.33;1.55;;;;;;;;;;5008139;28;20484;-60
2021/06/12 00:18:15;;;;;;;1.50;1.40;;;;;;;;;;5006760;28;20038;-60
2021/06/12 00:20:41;;;;;;;2.33;1.63;;;;;;;;;;5007207;28;20041;-60
2021/06/12 00:23:07;;;;;;;1.92;1.35;;;;;;;;;;5012239;28;20025;-60
2021/06/12 00:25:34;;;;;;;2.13;1.40;;;;;;;;;;5009846;28;20033;-59
2021/06/12 00:28:01;;;;;;;3.10;1.33;;;;;;;;;;5007645;28;20022;-59
2021/06/12 00:30:27;;;;;;;2.97;1.40;;;;;;;;;;5008820;28;20594;-60
2021/06/12 00:32:54;;;;;;;3.08;1.40;;;;;;;;;;5008425;28;20104;-60
2021/06/12 00:35:20;;;;;;;4.82;1.77;;;;;;;;;;5008098;28;20033;-61
2021/06/12 00:37:46;;;;;;;2.30;1.85;;;;;;;;;;5010513;28;20022;-58
2021/06/12 00:40:14;;;;;;;1.85;1.40;;;;;;;;;;5004097;28;20065;-60
2021/06/12 00:42:40;;;;;;;4.60;1.30;;;;;;;;;;5013445;28;20081;-60
2021/06/12 00:45:07;;;;;;;2.20;1.48;;;;;;;;;;5008543;28;20641;-59
2021/06/12 00:47:33;;;;;;;1.52;1.42;;;;;;;;;;5006635;28;20033;-59
2021/06/12 00:50:00;;;;;;;1.60;1.50;;;;;;;;;;5007831;28;20053;-59
2021/06/12 00:52:26;;;;;;;3.03;1.60;;;;;;;;;;5009114;28;20131;-60
2021/06/12 00:54:52;;;;;;;1.77;1.63;;;;;;;;;;5007774;28;20056;-60
2021/06/12 00:57:19;;;;;;;1.40;1.30;;;;;;;;;;5007877;28;20032;-60
2021/06/12 00:59:45;;;;;;;1.83;1.45;;;;;;;;;;5007024;28;20507;-59
2021/06/12 01:02:11;;;;;;;1.60;1.50;;;;;;;;;;5011048;28;20424;-60
2021/06/12 01:04:37;;;;;;;1.75;1.33;;;;;;;;;;5010177;28;20034;-61
2021/06/12 01:07:03;;;;;;;2.03;1.70;;;;;;;;;;5009961;28;20061;-61
2021/06/12 01:09:29;;;;;;;3.30;1.67;;;;;;;;;;5012846;28;20049;-61
2021/06/12 01:12:01;;;;;;;1.60;1.50;;;;;;;;;;5011908;28;20037;-61
2021/06/12 01:14:29;;;;;;;1.50;1.40;;;;;;;;;;5007211;28;20116;-61
2021/06/12 01:17:07;;;;;;;1.90;1.50;;;;;;;;;;5007072;28;20373;-61
2021/06/12 01:20:04;;;;;;;2.40;1.45;;;;;;;;;;5006456;28;20030;-61
2021/06/12 01:22:32;;;;;;;1.17;1.10;;;;;;;;;;5011565;28;20038;-60
2021/06/12 01:25:01;;;;;;;3.45;1.52;;;;;;;;;;5006012;28;20304;-61
2021/06/12 01:27:46;;;;;;;2.13;1.45;;;;;;;;;;5005472;28;20038;-61
2021/06/12 01:30:16;;;;;;;1.67;1.58;;;;;;;;;;5006241;28;20524;-61
2021/06/12 01:32:50;;;;;;;2.05;1.80;;;;;;;;;;5008477;28;20116;-61
2021/06/12 01:35:30;;;;;;;2.85;1.98;;;;;;;;;;5009141;28;20044;-61
2021/06/12 01:37:56;;;;;;;3.05;1.63;;;;;;;;;;5008249;28;20586;-61
2021/06/12 01:40:27;;;;;;;3.40;1.40;;;;;;;;;;5009012;28;20173;-61
2021/06/12 01:42:54;;;;;;;2.83;1.52;;;;;;;;;;5010295;28;20041;-60
2021/06/12 01:45:22;;;;;;;3.58;1.50;;;;;;;;;;5009648;28;20029;-60
2021/06/12 01:47:48;;;;;;;1.30;1.20;;;;;;;;;;5008034;28;20495;-59
2021/06/12 01:50:15;;;;;;;1.50;1.40;;;;;;;;;;5005721;28;20037;-60
2021/06/12 01:52:42;;;;;;;3.20;1.50;;;;;;;;;;5010531;28;20391;-60
2021/06/12 01:55:10;;;;;;;1.70;1.50;;;;;;;;;;5004956;28;20030;-60
2021/06/12 01:57:36;;;;;;;2.15;1.45;;;;;;;;;;5006113;28;20523;-60
2021/06/12 02:00:04;;;;;;;2.50;1.30;;;;;;;;;;5007857;28;20077;-60
2021/06/12 02:02:30;;;;;;;1.88;1.70;;;;;;;;;;5010550;28;20048;-61
2021/06/12 02:04:57;;;;;;;3.25;1.60;;;;;;;;;;5005558;28;20189;-61
2021/06/12 02:07:23;;;;;;;1.58;1.42;;;;;;;;;;5008139;28;20080;-61
2021/06/12 02:09:51;;;;;;;3.10;1.50;;;;;;;;;;5007845;28;20080;-61
2021/06/12 02:12:18;;;;;;;1.85;1.60;;;;;;;;;;5007036;28;20030;-60
2021/06/12 02:14:44;;;;;;;2.15;1.48;;;;;;;;;;5007431;28;20030;-60
2021/06/12 02:17:10;;;;;;;1.45;1.33;;;;;;;;;;5004838;28;21112;-60
2021/06/12 02:19:37;;;;;;;1.73;1.45;;;;;;;;;;5006722;28;20041;-60
2021/06/12 02:22:05;;;;;;;2.92;1.77;;;;;;;;;;5006111;28;20064;-59
2021/06/12 02:24:31;;;;;;;1.52;1.42;;;;;;;;;;5009757;28;20048;-60
2021/06/12 02:26:57;;;;;;;1.70;1.60;;;;;;;;;;5009500;28;20030;-59
2021/06/12 02:29:25;;;;;;;1.98;1.85;;;;;;;;;;5013524;28;20606;-60
2021/06/12 02:31:54;;;;;;;1.98;1.33;;;;;;;;;;5006988;28;20033;-60
2021/06/12 02:34:20;;;;;;;3.95;1.50;;;;;;;;;;5011401;28;20407;-62
2021/06/12 02:36:46;;;;;;;1.75;1.65;;;;;;;;;;5009736;28;20033;-61
2021/06/12 02:39:12;;;;;;;1.70;1.40;;;;;;;;;;5011288;28;20026;-61
2021/06/12 02:41:38;;;;;;;3.97;1.73;;;;;;;;;;5010453;28;20500;-61
2021/06/12 02:44:05;;;;;;;3.90;1.70;;;;;;;;;;5004580;28;20157;-60
2021/06/12 02:46:32;;;;;;;2.97;1.80;;;;;;;;;;5008403;28;20038;-60
2021/06/12 02:49:04;;;;;;;3.00;1.50;;;;;;;;;;5007673;28;20109;-58
2021/06/12 02:51:33;;;;;;;2.92;1.90;;;;;;;;;;5010414;28;20029;-60
2021/06/12 02:53:59;;;;;;;2.30;1.67;;;;;;;;;;5009256;28;20113;-60
2021/06/12 02:56:25;;;;;;;1.60;1.50;;;;;;;;;;5009561;28;20096;-60
2021/06/12 02:58:54;;;;;;;5.88;1.77;;;;;;;;;;5007568;28;20095;-60
2021/06/12 03:01:22;;;;;;;7.13;1.80;;;;;;;;;;5013188;28;20537;-61
2021/06/12 03:03:49;;;;;;;4.03;1.88;;;;;;;;;;5010347;28;20301;-61
2021/06/12 03:06:18;;;;;;;3.22;1.88;;;;;;;;;;5008991;28;20481;-60
2021/06/12 03:08:45;;;;;;;4.55;2.35;;;;;;;;;;5010361;28;20073;-59
2021/06/12 03:11:12;;;;;;;3.15;1.95;;;;;;;;;;5011237;28;20479;-60
2021/06/12 03:13:42;;;;;;;2.47;1.55;;;;;;;;;;5010601;28;20109;-60
2021/06/12 03:16:08;;;;;;;2.00;1.80;;;;;;;;;;5009910;28;20088;-60
2021/06/12 03:18:35;;;;;;;2.35;1.80;;;;;;;;;;5009448;28;20037;-60
2021/06/12 03:21:02;;;;;;;1.80;1.70;;;;;;;;;;5009461;28;20046;-59
2021/06/12 03:23:29;;;;;;;2.47;1.60;;;;;;;;;;5006376;28;20030;-59
2021/06/12 03:25:56;;;;;;;1.73;1.63;;;;;;;;;;5011364;28;20055;-59
2021/06/12 03:28:22;;;;;;;1.73;1.60;;;;;;;;;;5014976;28;20022;-59
2021/06/12 03:30:48;;;;;;;5.10;1.58;;;;;;;;;;5008614;28;20368;-59
2021/06/12 03:33:15;;;;;;;3.28;1.60;;;;;;;;;;5013922;28;20034;-58
2021/06/12 03:35:41;;;;;;;1.90;1.73;;;;;;;;;;5011926;28;20276;-59
2021/06/12 03:38:08;;;;;;;4.10;1.95;;;;;;;;;;5010524;28;20129;-59
2021/06/12 03:40:34;;;;;;;2.80;1.52;;;;;;;;;;5009234;28;20533;-60
2021/06/12 03:43:01;;;;;;;1.85;1.70;;;;;;;;;;5010820;28;20036;-59
2021/06/12 03:45:27;;;;;;;2.65;1.40;;;;;;;;;;5010942;28;20440;-59
2021/06/12 03:47:54;;;;;;;4.03;1.60;;;;;;;;;;5008995;28;20036;-60
2021/06/12 03:50:21;;;;;;;3.88;1.60;;;;;;;;;;5010038;28;20383;-60
2021/06/12 03:52:49;;;;;;;1.52;1.40;;;;;;;;;;5009447;28;20025;-60
2021/06/12 03:55:17;;;;;;;1.70;1.60;;;;;;;;;;5009279;28;20029;-60
2021/06/12 03:57:43;;;;;;;2.90;1.67;;;;;;;;;;5012192;28;21062;-60
2021/06/12 04:00:10;;;;;;;2.05;1.92;;;;;;;;;;5011767;28;20511;-60
2021/06/12 04:02:36;;;;;;;1.83;1.73;;;;;;;;;;5012106;28;20577;-60
2021/06/12 04:05:03;;;;;;;1.63;1.50;;;;;;;;;;5010841;28;20504;-60
2021/06/12 04:07:29;;;;;;;4.68;1.55;;;;;;;;;;5015611;28;20033;-60
2021/06/12 04:09:55;;;;;;;1.70;1.60;;;;;;;;;;5008607;28;20110;-60
2021/06/12 04:12:21;;;;;;;1.80;1.67;;;;;;;;;;5011877;28;20025;-60
2021/06/12 04:14:48;;;;;;;1.73;1.60;;;;;;;;;;5011349;28;20033;-60
2021/06/12 04:17:15;;;;;;;1.70;1.60;;;;;;;;;;5009141;28;20032;-59
2021/06/12 04:19:42;;;;;;;2.58;1.20;;;;;;;;;;5013233;28;20038;-60
2021/06/12 04:22:08;;;;;;;2.25;1.58;;;;;;;;;;5011253;28;20033;-59
2021/06/12 04:24:34;;;;;;;2.05;1.50;;;;;;;;;;5009910;28;20125;-60
2021/06/12 04:27:01;;;;;;;2.83;1.60;;;;;;;;;;5010053;28;20017;-59
2021/06/12 04:29:27;;;;;;;2.33;1.88;;;;;;;;;;5014986;28;20108;-60
2021/06/12 04:31:53;;;;;;;8.80;1.88;;;;;;;;;;5014382;28;20033;-59
2021/06/12 04:34:19;;;;;;;1.70;1.30;;;;;;;;;;5010844;28;20038;-60
2021/06/12 04:36:45;;;;;;;3.90;1.67;;;;;;;;;;5009574;28;20025;-59
2021/06/12 04:39:12;;;;;;;2.13;1.77;;;;;;;;;;5007669;28;20562;-59
2021/06/12 04:41:38;;;;;;;1.95;1.30;;;;;;;;;;5007479;28;20037;-59
2021/06/12 04:44:05;;;;;;;2.38;1.50;;;;;;;;;;5007796;28;20034;-59
2021/06/12 04:46:31;;;;;;;3.42;1.20;;;;;;;;;;5011209;28;20037;-59
2021/06/12 04:48:57;;;;;;;1.80;1.70;;;;;;;;;;5009054;28;20030;-59
2021/06/12 04:51:23;;;;;;;2.25;1.60;;;;;;;;;;5009042;28;20026;-59
2021/06/12 04:53:49;;;;;;;1.52;1.42;;;;;;;;;;5007354;28;20116;-60
2021/06/12 04:56:15;;;;;;;4.50;1.20;;;;;;;;;;5006241;28;20041;-59
2021/06/12 04:58:41;;;;;;;1.50;1.40;;;;;;;;;;5009743;28;20033;-60
2021/06/12 05:01:08;;;;;;;1.85;1.40;;;;;;;;;;5009320;28;20038;-61
2021/06/12 05:03:35;;;;;;;1.48;1.38;;;;;;;;;;5008374;28;20029;-61
2021/06/12 05:06:02;;;;;;;1.73;1.23;;;;;;;;;;5009249;28;20113;-61
2021/06/12 05:08:28;;;;;;;1.63;1.35;;;;;;;;;;5009097;28;20388;-61
2021/06/12 05:10:54;;;;;;;2.53;1.42;;;;;;;;;;5010500;28;20389;-60
2021/06/12 05:13:20;;;;;;;1.45;1.35;;;;;;;;;;5010365;28;20021;-61
2021/06/12 05:15:47;;;;;;;2.63;1.17;;;;;;;;;;5008510;28;20026;-60
2021/06/12 05:18:14;;;;;;;1.80;1.33;;;;;;;;;;5011471;28;20300;-61
2021/06/12 05:20:40;;;;;;;2.13;1.30;;;;;;;;;;5007599;28;20377;-60
2021/06/12 05:23:06;;;;;;;1.50;1.30;;;;;;;;;;5009637;28;20463;-62
2021/06/12 05:25:33;;;;;;;7.53;1.40;;;;;;;;;;5007016;28;20030;-61
2021/06/12 05:28:00;;;;;;;2.47;1.27;;;;;;;;;;5010081;28;20051;-61
2021/06/12 05:30:26;;;;;;;3.15;1.27;;;;;;;;;;5010479;28;20452;-62
2021/06/12 05:32:53;;;;;;;2.25;1.35;;;;;;;;;;5009613;28;20021;-62
2021/06/12 05:35:19;;;;;;;2.17;1.27;;;;;;;;;;5010116;28;20119;-60
2021/06/12 05:37:45;;;;;;;8.40;1.58;;;;;;;;;;5009431;28;20037;-60
2021/06/12 05:40:12;;;;;;;7.35;1.60;;;;;;;;;;5007294;28;20033;-61
2021/06/12 05:42:38;;;;;;;4.20;1.38;;;;;;;;;;5005072;28;20463;-61
2021/06/12 05:45:05;;;;;;;4.45;1.17;;;;;;;;;;5009595;28;20040;-60
2021/06/12 05:47:31;;;;;;;2.42;1.45;;;;;;;;;;5010339;28;20026;-60
2021/06/12 05:49:57;;;;;;;3.35;1.67;;;;;;;;;;5010690;28;20022;-60
2021/06/12 05:52:24;;;;;;;3.65;1.73;;;;;;;;;;5009838;28;20036;-60
2021/06/12 05:54:50;;;;;;;6.68;1.50;;;;;;;;;;5012275;28;20034;-60
2021/06/12 05:57:16;;;;;;;2.58;1.20;;;;;;;;;;5011849;28;20034;-61
2021/06/12 05:59:42;;;;;;;4.55;1.25;;;;;;;;;;5009313;28;20053;-60
2021/06/12 06:02:08;;;;;;;4.32;1.60;;;;;;;;;;5010555;28;20459;-60
2021/06/12 06:04:34;;;;;;;9.07;1.42;;;;;;;;;;5013259;28;20030;-60
2021/06/12 06:07:00;;;;;;;2.72;1.33;;;;;;;;;;5011419;28;20152;-61
2021/06/12 06:09:26;;;;;;;3.45;1.60;;;;;;;;;;5010521;28;20097;-60
2021/06/12 06:11:52;;;;;;;1.92;1.50;;;;;;;;;;5012005;28;20017;-61
2021/06/12 06:14:18;;;;;;;2.20;1.42;;;;;;;;;;5012283;28;20040;-60
2021/06/12 06:16:44;;;;;;;6.70;1.35;;;;;;;;;;5011300;28;20476;-63
2021/06/12 06:19:10;;;;;;;3.38;1.42;;;;;;;;;;5007464;28;20041;-67
2021/06/12 06:21:37;;;;;;;6.10;1.50;;;;;;;;;;5009731;28;20045;-65
2021/06/12 06:24:04;;;;;;;5.60;1.13;;;;;;;;;;5006756;28;20478;-62
2021/06/12 06:26:31;;;;;;;7.57;1.88;;;;;;;;;;5007854;28;20058;-67
2021/06/12 06:28:58;;;;;;;3.30;1.70;;;;;;;;;;5006591;28;20033;-63
2021/06/12 06:31:24;;;;;;;1.60;1.20;;;;;;;;;;5007140;28;20033;-64
2021/06/12 06:33:50;;;;;;;5.95;2.10;;;;;;;;;;5013055;28;20029;-64
2021/06/12 06:36:16;;;;;;;5.15;1.88;;;;;;;;;;5010714;28;20029;-64
2021/06/12 06:38:42;;;;;;;8.82;2.47;;;;;;;;;;5013955;28;20116;-65
2021/06/12 06:41:09;;;;;;;14.93;1.85;;;;;;;;;;5010225;28;20124;-65
2021/06/12 06:43:35;;;;;;;6.07;1.80;;;;;;;;;;5012849;28;20551;-66
2021/06/12 06:46:01;;;;;;;6.65;1.55;;;;;;;;;;5013887;28;20038;-66
2021/06/12 06:48:27;;;;;;;3.55;1.45;;;;;;;;;;5012547;28;20084;-64
2021/06/12 06:50:54;;;;;;;8.52;1.92;;;;;;;;;;5010461;28;20029;-64
2021/06/12 06:53:20;;;;;;;4.22;1.30;;;;;;;;;;5012948;28;20026;-64
2021/06/12 06:55:46;;;;;;;2.80;1.77;;;;;;;;;;5012451;28;20030;-68
2021/06/12 06:58:12;;;;;;;6.45;1.55;;;;;;;;;;5012113;28;20033;-66
2021/06/12 07:00:38;;;;;;;3.90;1.48;;;;;;;;;;5012108;28;20037;-66
2021/06/12 07:03:04;;;;;;;21.70;2.47;;;;;;;;;;5014081;28;20022;-72
2021/06/12 07:05:31;;;;;;;14.18;1.60;;;;;;;;;;5013509;28;20041;-72
2021/06/12 07:07:57;;;;;;;8.00;1.55;;;;;;;;;;5013532;28;20030;-72
2021/06/12 07:10:23;;;;;;;7.65;1.50;;;;;;;;;;5015626;28;20053;-72
2021/06/12 07:12:49;;;;;;;3.78;1.20;;;;;;;;;;5017293;28;20034;-72
2021/06/12 07:15:15;;;;;;;4.57;1.30;;;;;;;;;;5014740;28;20451;-70
2021/06/12 07:17:41;;;;;;;4.63;1.42;;;;;;;;;;5014638;28;20515;-71
2021/06/12 07:20:08;;;;;;;1.33;1.00;;;;;;;;;;5014967;28;20037;-72
2021/06/12 07:22:35;;;;;;;4.07;1.13;;;;;;;;;;5014916;28;20342;-74
2021/06/12 07:25:01;;;;;;;2.45;0.90;;;;;;;;;;5017005;28;20091;-74
2021/06/12 07:27:27;;;;;;;3.20;1.08;;;;;;;;;;5015695;28;20037;-69
2021/06/12 07:29:53;;;;;;;2.13;1.10;;;;;;;;;;5017436;28;20615;-73
2021/06/12 07:32:19;;;;;;;0.90;0.85;;;;;;;;;;5017691;28;20095;-74
2021/06/12 07:34:45;;;;;;;1.90;0.90;;;;;;;;;;5018519;28;20036;-75
2021/06/12 07:37:11;;;;;;;4.38;0.90;;;;;;;;;;5019281;28;20026;-73
2021/06/12 07:39:37;;;;;;;3.22;1.10;;;;;;;;;;5018737;28;20056;-65
2021/06/12 07:42:04;;;;;;;2.00;0.73;;;;;;;;;;5015924;28;20364;-68
2021/06/12 07:44:30;;;;;;;2.95;1.10;;;;;;;;;;5017398;28;20040;-67
2021/06/12 07:46:56;;;;;;;2.85;1.00;;;;;;;;;;5016013;28;20136;-62
2021/06/12 07:49:22;;;;;;;4.63;1.40;;;;;;;;;;5015952;28;20021;-63
2021/06/12 07:51:48;;;;;;;5.35;1.23;;;;;;;;;;5017417;28;20480;-63
2021/06/12 07:54:14;;;;;;;2.50;1.00;;;;;;;;;;5016481;28;20037;-62
2021/06/12 07:56:40;;;;;;;7.78;1.50;;;;;;;;;;5015456;28;20024;-65
2021/06/12 07:59:06;;;;;;;8.73;1.40;;;;;;;;;;5014440;28;20041;-76
2021/06/12 08:01:33;;;;;;;3.72;1.60;;;;;;;;;;5017054;28;20076;-71
2021/06/12 08:03:59;;;;;;;7.65;1.40;;;;;;;;;;5018035;28;20018;-70
2021/06/12 08:06:25;;;;;;;4.53;1.55;;;;;;;;;;5017415;28;20540;-69
2021/06/12 08:08:52;;;;;;;7.15;1.05;;;;;;;;;;5016931;28;20393;-68
2021/06/12 08:11:18;;;;;;;2.85;0.98;;;;;;;;;;5015943;28;20064;-67
2021/06/12 08:13:44;;;;;;;3.88;0.93;;;;;;;;;;5016500;28;20134;-66
2021/06/12 08:16:10;;;;;;;9.20;1.50;;;;;;;;;;5016208;28;20026;-67
2021/06/12 08:18:36;;;;;;;8.48;1.50;;;;;;;;;;5014869;28;20029;-67
2021/06/12 08:21:03;;;;;;;5.03;0.90;;;;;;;;;;5012774;28;20087;-65
2021/06/12 08:23:29;;;;;;;8.02;0.98;;;;;;;;;;5015832;28;20048;-65
2021/06/12 08:25:55;;;;;;;2.75;1.25;;;;;;;;;;5011560;28;20167;-66
2021/06/12 08:28:21;;;;;;;4.43;0.88;;;;;;;;;;5012844;28;20061;-62
2021/06/12 08:30:47;;;;;;;7.30;1.02;;;;;;;;;;5014792;28;20534;-60
2021/06/12 08:33:13;;;;;;;5.07;1.23;;;;;;;;;;5016279;28;20030;-60
2021/06/12 08:35:40;;;;;;;5.43;0.80;;;;;;;;;;5015251;28;20026;-64
2021/06/12 08:38:07;;;;;;;5.60;1.65;;;;;;;;;;5010381;28;20473;-65
2021/06/12 08:40:33;;;;;;;4.07;1.35;;;;;;;;;;5008760;28;20065;-74
2021/06/12 08:42:59;;;;;;;3.17;1.20;;;;;;;;;;5011069;28;20033;-65
2021/06/12 08:45:28;;;;;;;2.28;1.55;;;;;;;;;;5014345;28;20457;-65
2021/06/12 08:47:54;;;;;;;2.47;0.98;;;;;;;;;;5016852;28;20072;-65
2021/06/12 08:50:23;;;;;;;5.30;1.17;;;;;;;;;;5013710;28;20037;-64
2021/06/12 08:52:49;;;;;;;8.05;1.58;;;;;;;;;;5015343;28;20033;-65
2021/06/12 08:55:15;;;;;;;6.78;0.93;;;;;;;;;;5014389;28;20357;-72
2021/06/12 08:57:41;;;;;;;7.05;1.23;;;;;;;;;;5015066;28;20033;-73
2021/06/12 09:00:09;;;;;;;13.48;1.70;;;;;;;;;;5012667;28;20444;-75
2021/06/12 09:02:54;;;;;;;8.93;1.10;;;;;;;;;;5014659;28;20033;-74
2021/06/12 09:05:24;;;;;;;5.45;1.20;;;;;;;;;;5011682;28;20060;-69
2021/06/12 09:08:05;;;;;;;10.05;1.38;;;;;;;;;;5009575;28;20043;-72
2021/06/12 09:10:31;;;;;;;6.07;1.15;;;;;;;;;;5008824;28;20403;-66
2021/06/12 09:12:57;;;;;;;7.22;1.70;;;;;;;;;;5005672;28;20452;-63
2021/06/12 09:15:23;;;;;;;3.83;1.52;;;;;;;;;;5009098;28;20411;-63
2021/06/12 09:17:50;;;;;;;3.25;1.10;;;;;;;;;;5009225;28;20030;-62
2021/06/12 09:20:36;;;;;;;3.45;1.10;;;;;;;;;;5005679;28;20373;-62
2021/06/12 09:23:18;;;;;;;4.13;1.33;;;;;;;;;;5005391;28;20037;-62
2021/06/12 09:25:45;;;;;;;4.38;1.48;;;;;;;;;;5005496;28;20392;-63
2021/06/12 09:28:11;;;;;;;4.13;1.20;;;;;;;;;;5006940;28;20120;-62
2021/06/12 09:30:37;;;;;;;3.72;1.85;;;;;;;;;;5005687;28;20022;-62
2021/06/12 09:33:03;;;;;;;3.75;2.10;;;;;;;;;;5006687;28;20115;-62
2021/06/12 09:35:34;;;;;;;17.55;9.23;;;;;;;;;;5004673;28;20030;-62
2021/06/12 09:38:00;;;;;;;31.88;18.10;;;;;;;;;;5005395;28;20029;-63
2021/06/12 09:40:30;;;;;;;24.38;14.88;;;;;;;;;;5004495;28;20052;-63
2021/06/12 09:42:57;;;;;;;27.55;14.20;;;;;;;;;;5006485;28;20022;-63
2021/06/12 09:45:23;;;;;;;15.13;9.85;;;;;;;;;;5007438;28;20033;-64
2021/06/12 09:47:49;;;;;;;17.92;9.35;;;;;;;;;;5013016;28;20100;-65
2021/06/12 09:50:16;;;;;;;13.20;8.20;;;;;;;;;;5013002;28;20109;-60
2021/06/12 09:52:49;;;;;;;18.23;7.13;;;;;;;;;;5012307;28;20524;-61
2021/06/12 09:55:21;;;;;;;10.82;6.70;;;;;;;;;;5007560;28;20038;-61
2021/06/12 09:57:48;;;;;;;10.23;4.63;;;;;;;;;;5007632;28;20067;-60
2021/06/12 10:00:15;;;;;;;6.15;3.28;;;;;;;;;;5007965;28;20041;-63
2021/06/12 10:02:44;;;;;;;6.63;2.92;;;;;;;;;;5004294;28;20030;-70
2021/06/12 10:05:12;;;;;;;8.65;3.72;;;;;;;;;;5004820;28;20021;-63
2021/06/12 10:07:38;;;;;;;6.38;2.65;;;;;;;;;;5006404;28;20030;-62
2021/06/12 10:10:05;;;;;;;7.88;2.25;;;;;;;;;;5006016;28;20068;-62
2021/06/12 10:12:31;;;;;;;4.38;2.10;;;;;;;;;;5008174;28;20026;-61
2021/06/12 10:14:58;;;;;;;12.68;2.17;;;;;;;;;;5006405;28;20030;-63
2021/06/12 10:17:24;;;;;;;7.82;2.75;;;;;;;;;;5009049;28;20034;-66
2021/06/12 10:19:51;;;;;;;7.88;2.40;;;;;;;;;;5009590;28;20137;-64
2021/06/12 10:22:17;;;;;;;7.07;3.05;;;;;;;;;;5012425;28;20609;-64
2021/06/12 10:24:43;;;;;;;6.68;2.10;;;;;;;;;;5012454;28;20092;-64
2021/06/12 10:27:10;;;;;;;7.93;1.90;;;;;;;;;;5012574;28;20044;-63
2021/06/12 10:29:37;;;;;;;4.15;1.60;;;;;;;;;;5012369;28;20079;-64
2021/06/12 10:32:04;;;;;;;3.83;1.92;;;;;;;;;;5012245;28;20033;-65
2021/06/12 10:34:30;;;;;;;4.10;2.22;;;;;;;;;;5012847;28;20061;-67
2021/06/12 10:37:02;;;;;;;3.15;1.60;;;;;;;;;;5017495;28;20037;-63
2021/06/12 10:39:30;;;;;;;5.00;2.00;;;;;;;;;;5010929;28;20557;-63
2021/06/12 10:42:09;;;;;;;5.28;1.60;;;;;;;;;;5005941;28;20137;-61
2021/06/12 10:44:36;;;;;;;5.82;1.73;;;;;;;;;;5012085;28;20067;-63
2021/06/12 10:47:02;;;;;;;5.57;1.98;;;;;;;;;;5008572;28;20077;-62
2021/06/12 10:49:29;;;;;;;7.15;2.08;;;;;;;;;;5011358;28;20111;-63
2021/06/12 10:51:55;;;;;;;5.32;1.63;;;;;;;;;;5011454;28;20881;-64
2021/06/12 10:54:28;;;;;;;4.28;1.83;;;;;;;;;;5010476;28;20045;-62
2021/06/12 10:56:56;;;;;;;3.60;1.52;;;;;;;;;;5011044;28;20073;-61
2021/06/12 10:59:38;;;;;;;3.90;1.55;;;;;;;;;;5017153;28;20372;-62
2021/06/12 11:02:09;;;;;;;2.15;1.58;;;;;;;;;;5013516;28;20101;-61
2021/06/12 11:04:43;;;;;;;2.38;1.38;;;;;;;;;;5004960;28;20026;-66
2021/06/12 11:07:23;;;;;;;4.55;1.50;;;;;;;;;;5012771;28;20034;-66
2021/06/12 11:09:50;;;;;;;6.35;1.52;;;;;;;;;;5013934;28;20042;-65
2021/06/12 11:12:16;;;;;;;15.40;2.30;;;;;;;;;;5012579;28;20116;-65
2021/06/12 11:14:53;;;;;;;4.20;1.73;;;;;;;;;;5014972;28;20437;-69
2021/06/12 11:17:20;;;;;;;4.93;1.80;;;;;;;;;;5013990;28;20037;-67
2021/06/12 11:19:46;;;;;;;4.40;2.05;;;;;;;;;;5015100;28;20215;-68
2021/06/12 11:22:31;;;;;;;6.20;2.08;;;;;;;;;;5014478;28;20033;-61
2021/06/12 11:24:58;;;;;;;6.22;2.22;;;;;;;;;;5013072;28;20026;-60
2021/06/12 11:27:32;;;;;;;4.00;2.22;;;;;;;;;;5015671;28;20040;-63
2021/06/12 11:30:10;;;;;;;4.45;1.65;;;;;;;;;;5017535;28;20443;-65
2021/06/12 11:32:36;;;;;;;6.63;1.98;;;;;;;;;;5013460;28;20026;-62
2021/06/12 11:35:03;;;;;;;6.65;1.98;;;;;;;;;;5013436;28;20026;-65
2021/06/12 11:37:29;;;;;;;4.75;1.60;;;;;;;;;;5014349;28;20033;-65
2021/06/12 11:39:56;;;;;;;5.43;2.10;;;;;;;;;;5014382;28;20112;-66
2021/06/12 11:42:23;;;;;;;4.47;2.10;;;;;;;;;;5015571;28;20034;-65
2021/06/12 11:44:49;;;;;;;5.07;2.10;;;;;;;;;;5020590;28;20103;-69
2021/06/12 11:47:26;;;;;;;5.97;1.88;;;;;;;;;;5018120;28;20123;-85
